createdAt,value
2019-06-26T00:00:15.126Z,22.90
2019-06-26T00:05:15.775Z,23.20
2019-06-26T00:07:46.285Z,23.00
2019-06-26T00:10:17.111Z,23.20
2019-06-26T00:12:47.660Z,23.20
2019-06-26T00:15:18.367Z,23.00
2019-06-26T00:17:48.789Z,22.80
2019-06-26T00:20:19.951Z,22.90
2019-06-26T00:22:50.570Z,23.10
2019-06-26T00:25:21.352Z,23.20
2019-06-26T00:27:52.271Z,23.10
2019-06-26T00:30:22.861Z,22.90
2019-06-26T00:32:53.489Z,22.70
2019-06-26T00:42:53.646Z,22.60
2019-06-26T00:45:24.639Z,22.40
2019-06-26T00:47:55.206Z,22.70
2019-06-26T00:50:26.081Z,22.30
2019-06-26T00:52:56.631Z,22.10
2019-06-26T00:57:56.903Z,22.30
2019-06-26T01:00:33.185Z,22.30
2019-06-26T01:05:33.328Z,22.00
2019-06-26T01:15:35.951Z,22.20
2019-06-26T01:18:07.497Z,22.10
2019-06-26T01:20:39.294Z,22.00
2019-06-26T01:23:10.214Z,22.30
2019-06-26T01:25:40.755Z,22.00
2019-06-26T01:28:11.609Z,21.90
2019-06-26T01:30:42.118Z,21.70
2019-06-26T01:33:12.579Z,21.60
2019-06-26T01:35:44.346Z,21.70
2019-06-26T01:38:14.851Z,21.80
2019-06-26T01:40:45.706Z,22.10
2019-06-26T01:43:16.331Z,21.70
2019-06-26T01:48:17.538Z,21.60
2019-06-26T01:50:49.322Z,21.60
2019-06-26T01:53:19.784Z,21.60
2019-06-26T01:55:50.475Z,21.60
2019-06-26T01:58:20.981Z,21.60
2019-06-26T02:00:51.744Z,21.50
2019-06-26T02:03:22.317Z,21.50
2019-06-26T02:05:52.906Z,21.00
2019-06-26T02:08:23.615Z,21.70
2019-06-26T02:10:54.131Z,21.50
2019-06-26T02:13:25.513Z,21.30
2019-06-26T02:15:56.427Z,21.50
2019-06-26T02:23:40.106Z,21.30
2019-06-26T02:28:40.712Z,21.30
2019-06-26T02:31:11.442Z,21.50
2019-06-26T02:33:42.193Z,21.40
2019-06-26T02:36:12.737Z,21.10
2019-06-26T02:38:43.390Z,21.50
2019-06-26T02:41:13.843Z,21.40
2019-06-26T02:46:14.174Z,21.40
2019-06-26T02:48:44.563Z,21.40
2019-06-26T02:51:14.985Z,21.30
2019-06-26T02:53:45.872Z,21.30
2019-06-26T02:56:16.531Z,21.30
2019-06-26T02:58:47.167Z,21.20
2019-06-26T03:01:17.751Z,21.20
2019-06-26T03:03:48.526Z,21.40
2019-06-26T03:06:19.326Z,21.80
2019-06-26T03:08:49.910Z,21.50
2019-06-26T03:13:50.655Z,21.60
2019-06-26T03:18:50.843Z,22.00
2019-06-26T03:21:21.356Z,21.60
2019-06-26T03:23:52.050Z,21.70
2019-06-26T03:26:22.605Z,21.80
2019-06-26T03:31:22.978Z,21.90
2019-06-26T03:33:53.736Z,22.00
2019-06-26T03:36:24.245Z,22.00
2019-06-26T03:41:24.420Z,22.20
2019-06-26T03:43:54.951Z,22.30
2019-06-26T03:48:55.185Z,22.20
2019-06-26T03:53:55.510Z,22.70
2019-06-26T03:56:26.342Z,22.80
2019-06-26T03:58:56.766Z,23.00
2019-06-26T04:06:28.518Z,23.30
2019-06-26T04:11:28.901Z,23.60
2019-06-26T04:13:59.693Z,23.90
2019-06-26T04:16:30.334Z,24.00
2019-06-26T04:19:00.943Z,24.20
2019-06-26T04:21:32.719Z,24.30
2019-06-26T04:34:02.519Z,25.20
2019-06-26T04:36:33.286Z,25.40
2019-06-26T04:39:04.736Z,25.40
2019-06-26T04:41:35.313Z,25.60
2019-06-26T04:44:05.849Z,25.70
2019-06-26T04:46:36.356Z,25.80
2019-06-26T04:49:06.895Z,26.00
2019-06-26T04:51:37.492Z,26.10
2019-06-26T04:54:07.970Z,26.40
2019-06-26T04:56:38.555Z,26.30
2019-06-26T04:59:09.167Z,26.40
2019-06-26T05:01:39.663Z,26.70
2019-06-26T05:04:10.456Z,26.70
2019-06-26T05:06:41.005Z,26.80
2019-06-26T05:09:11.733Z,26.80
2019-06-26T05:11:42.392Z,27.10
2019-06-26T05:14:13.192Z,27.20
2019-06-26T05:16:43.791Z,27.20
2019-06-26T05:19:14.958Z,27.30
2019-06-26T05:21:45.693Z,27.40
2019-06-26T05:24:16.276Z,27.60
2019-06-26T05:26:46.861Z,27.70
2019-06-26T05:29:17.608Z,27.60
2019-06-26T05:31:48.407Z,27.50
2019-06-26T05:34:19.005Z,27.60
2019-06-26T05:36:49.712Z,27.20
2019-06-26T05:39:20.336Z,27.40
2019-06-26T05:44:21.464Z,27.30
2019-06-26T05:46:52.121Z,27.40
2019-06-26T05:51:53.470Z,27.10
2019-06-26T05:54:24.167Z,27.40
2019-06-26T05:56:54.696Z,27.80
2019-06-26T06:06:55.427Z,27.90
2019-06-26T06:09:26.452Z,28.00
2019-06-26T06:14:27.022Z,28.00
2019-06-26T06:16:57.758Z,27.60
2019-06-26T06:19:28.348Z,27.90
2019-06-26T06:22:00.338Z,28.00
2019-06-26T06:24:30.942Z,28.20
2019-06-26T06:27:01.382Z,28.20
2019-06-26T06:29:32.081Z,28.30
2019-06-26T06:32:03.054Z,28.00
2019-06-26T06:34:34.072Z,28.00
2019-06-26T06:37:04.968Z,28.20
2019-06-26T06:39:35.746Z,28.10
2019-06-26T06:42:06.265Z,28.00
2019-06-26T06:44:37.727Z,28.20
2019-06-26T06:47:09.150Z,28.20
2019-06-26T06:49:40.299Z,28.10
2019-06-26T06:52:10.723Z,28.40
2019-06-26T06:54:41.718Z,28.40
2019-06-26T06:59:42.440Z,28.30
2019-06-26T07:04:44.170Z,28.30
2019-06-26T07:07:14.722Z,28.50
2019-06-26T07:09:46.005Z,28.70
2019-06-26T07:12:20.607Z,29.00
2019-06-26T07:14:49.976Z,28.70
2019-06-26T07:17:21.523Z,28.40
2019-06-26T07:19:53.763Z,28.80
2019-06-26T07:22:24.761Z,28.50
2019-06-26T07:24:56.149Z,28.40
2019-06-26T07:27:26.692Z,28.80
2019-06-26T07:29:57.325Z,28.60
2019-06-26T07:32:28.508Z,28.80
2019-06-26T07:34:59.254Z,28.70
2019-06-26T07:37:29.692Z,29.00
2019-06-26T07:40:02.166Z,29.20
2019-06-26T07:42:33.075Z,29.00
2019-06-26T07:45:05.231Z,29.30
2019-06-26T07:47:43.237Z,28.90
2019-06-26T07:52:38.692Z,28.80
2019-06-26T07:55:12.076Z,29.00
2019-06-26T07:57:42.265Z,29.30
2019-06-26T08:00:13.489Z,29.00
2019-06-26T08:02:44.547Z,29.50
2019-06-26T08:05:15.721Z,29.50
2019-06-26T08:10:16.561Z,29.20
2019-06-26T08:12:47.337Z,29.20
2019-06-26T08:15:19.582Z,29.30
2019-06-26T08:20:22.708Z,29.30
2019-06-26T08:22:53.748Z,29.30
2019-06-26T08:27:54.303Z,29.10
2019-06-26T08:38:08.925Z,29.80
2019-06-26T08:42:56.893Z,29.80
2019-06-26T08:50:27.493Z,29.80
2019-06-26T09:00:30.804Z,30.20
2019-06-26T09:03:01.583Z,30.40
2019-06-26T09:05:46.816Z,30.10
2019-06-26T09:08:05.098Z,30.40
2019-06-26T09:13:05.846Z,29.70
2019-06-26T09:15:36.779Z,29.80
2019-06-26T09:18:07.934Z,30.30
2019-06-26T09:20:40.150Z,30.00
2019-06-26T09:23:10.934Z,30.30
2019-06-26T09:28:12.405Z,29.60
2019-06-26T09:33:13.105Z,30.20
2019-06-26T09:35:43.853Z,30.40
2019-06-26T09:38:15.030Z,30.70
2019-06-26T09:40:45.549Z,30.60
2019-06-26T09:43:19.649Z,30.20
2019-06-26T09:45:50.343Z,30.30
2019-06-26T09:48:21.114Z,30.30
2019-06-26T09:50:52.234Z,30.40
2019-06-26T09:53:23.555Z,30.40
2019-06-26T09:55:54.224Z,30.60
2019-06-26T09:58:25.026Z,31.10
2019-06-26T10:00:55.786Z,30.50
2019-06-26T10:08:26.792Z,31.00
2019-06-26T10:10:57.828Z,30.70
2019-06-26T10:13:28.856Z,30.90
2019-06-26T10:16:00.773Z,31.00
2019-06-26T10:18:32.266Z,30.90
2019-06-26T10:21:03.349Z,31.30
2019-06-26T10:23:34.674Z,31.50
2019-06-26T10:26:05.557Z,31.00
2019-06-26T10:31:07.642Z,31.40
2019-06-26T10:33:38.609Z,31.30
2019-06-26T10:36:09.492Z,31.20
2019-06-26T10:38:40.359Z,31.60
2019-06-26T10:41:11.096Z,31.20
2019-06-26T10:43:42.186Z,31.30
2019-06-26T10:48:43.168Z,30.90
2019-06-26T10:53:43.845Z,31.10
2019-06-26T10:56:14.922Z,31.00
2019-06-26T10:58:45.978Z,31.40
2019-06-26T11:01:16.845Z,31.50
2019-06-26T11:03:47.404Z,31.20
2019-06-26T11:06:18.119Z,31.50
2019-06-26T11:08:49.020Z,31.80
2019-06-26T11:11:19.925Z,31.50
2019-06-26T11:13:50.836Z,31.10
2019-06-26T11:23:51.741Z,31.90
2019-06-26T11:26:22.361Z,31.50
2019-06-26T11:28:53.623Z,32.20
2019-06-26T11:31:24.794Z,32.10
2019-06-26T11:33:55.592Z,31.80
2019-06-26T11:36:26.669Z,32.00
2019-06-26T11:38:57.463Z,31.70
2019-06-26T11:41:28.440Z,31.90
2019-06-26T11:43:59.437Z,32.20
2019-06-26T11:46:30.137Z,31.90
2019-06-26T11:49:04.694Z,32.10
2019-06-26T11:51:35.598Z,32.20
2019-06-26T11:54:06.844Z,32.20
2019-06-26T11:59:07.195Z,31.90
2019-06-26T12:06:37.950Z,31.60
2019-06-26T12:09:09.199Z,31.70
2019-06-26T12:11:40.167Z,31.80
2019-06-26T12:16:41.201Z,31.90
2019-06-26T12:21:42.144Z,32.10
2019-06-26T12:24:12.698Z,31.60
2019-06-26T12:26:43.314Z,31.60
2019-06-26T12:29:14.503Z,32.00
2019-06-26T12:31:45.533Z,32.10
2019-06-26T12:46:46.480Z,32.10
2019-06-26T12:49:17.232Z,32.40
2019-06-26T12:56:48.760Z,32.70
2019-06-26T12:59:19.504Z,32.90
2019-06-26T13:01:50.295Z,32.70
2019-06-26T13:04:21.114Z,32.60
2019-06-26T13:09:23.492Z,33.30
2019-06-26T13:11:54.640Z,32.90
2019-06-26T13:14:25.710Z,32.60
2019-06-26T13:29:27.350Z,33.40
2019-06-26T13:31:57.883Z,33.30
2019-06-26T13:36:58.812Z,33.40
2019-06-26T13:39:29.790Z,33.70
2019-06-26T13:42:00.524Z,33.80
2019-06-26T13:44:31.183Z,33.80
2019-06-26T13:47:02.605Z,34.00
2019-06-26T13:49:33.440Z,33.80
2019-06-26T13:52:04.668Z,34.00
2019-06-26T13:54:35.679Z,33.60
2019-06-26T13:57:06.402Z,34.70
2019-06-26T13:59:37.195Z,34.10
2019-06-26T14:02:08.015Z,34.30
2019-06-26T14:07:10.808Z,34.30
2019-06-26T14:09:41.605Z,34.10
2019-06-26T14:12:12.400Z,34.50
2019-06-26T14:14:56.658Z,34.00
2019-06-26T14:17:15.589Z,34.60
2019-06-26T14:19:46.213Z,34.30
2019-06-26T14:24:47.189Z,34.60
2019-06-26T14:27:17.808Z,34.80
2019-06-26T14:29:48.623Z,34.40
2019-06-26T14:32:19.535Z,34.10
2019-06-26T14:34:52.614Z,34.40
2019-06-26T14:39:53.899Z,34.00
2019-06-26T14:42:24.553Z,34.00
2019-06-26T14:47:36.354Z,33.70
2019-06-26T14:50:07.359Z,34.10
2019-06-26T14:52:38.534Z,34.10
2019-06-26T14:55:09.987Z,33.20
2019-06-26T14:57:40.963Z,33.10
2019-06-26T15:00:12.047Z,33.20
2019-06-26T15:02:43.135Z,34.40
2019-06-26T15:05:14.860Z,34.10
2019-06-26T15:15:23.829Z,33.80
2019-06-26T15:22:58.640Z,33.80
2019-06-26T15:30:29.796Z,34.70
2019-06-26T15:33:00.628Z,34.10
2019-06-26T15:35:31.482Z,33.90
2019-06-26T15:38:04.299Z,33.50
2019-06-26T15:45:35.500Z,33.20
2019-06-26T15:48:09.763Z,33.50
2019-06-26T15:50:41.237Z,33.70
2019-06-26T15:53:12.483Z,33.80
2019-06-26T15:58:21.435Z,33.50
2019-06-26T16:00:53.014Z,33.70
2019-06-26T16:03:23.950Z,33.10
2019-06-26T16:05:58.006Z,34.70
2019-06-26T16:08:32.218Z,34.60
2019-06-26T16:11:04.051Z,33.60
2019-06-26T16:13:35.448Z,33.90
2019-06-26T16:16:06.522Z,33.70
2019-06-26T16:18:43.212Z,33.90
2019-06-26T16:36:14.878Z,33.50
2019-06-26T16:38:45.544Z,34.00
2019-06-26T16:41:17.400Z,33.70
2019-06-26T16:43:48.845Z,33.80
2019-06-26T16:51:26.600Z,32.60
2019-06-26T16:59:01.770Z,33.30
2019-06-26T17:01:32.830Z,33.30
2019-06-26T17:04:03.650Z,33.00
2019-06-26T17:11:34.785Z,33.00
2019-06-26T17:16:35.459Z,33.30
2019-06-26T17:19:06.229Z,33.80
2019-06-26T17:21:36.801Z,34.10
2019-06-26T17:24:07.531Z,33.20
2019-06-26T17:26:38.359Z,33.10
2019-06-26T17:29:09.014Z,33.00
2019-06-26T17:31:41.071Z,34.10
2019-06-26T17:34:12.191Z,33.30
2019-06-26T17:36:43.155Z,33.00
2019-06-26T17:41:44.596Z,32.60
2019-06-26T17:44:15.938Z,32.10
2019-06-26T17:46:46.716Z,33.00
2019-06-26T17:51:47.477Z,31.80
2019-06-26T17:56:48.065Z,31.80
2019-06-26T17:59:18.683Z,31.80
2019-06-26T18:01:49.196Z,31.50
2019-06-26T18:04:19.718Z,32.60
2019-06-26T18:06:50.422Z,33.10
2019-06-26T18:11:51.204Z,32.70
2019-06-26T18:19:23.406Z,31.00
2019-06-26T18:21:54.061Z,31.50
2019-06-26T18:24:25.063Z,31.30
2019-06-26T18:26:55.974Z,31.10
2019-06-26T18:34:42.649Z,30.90
2019-06-26T18:37:13.685Z,30.20
2019-06-26T18:44:44.195Z,28.90
2019-06-26T18:49:46.019Z,28.80
2019-06-26T18:52:16.605Z,28.60
2019-06-26T18:54:48.646Z,27.50
2019-06-26T18:57:19.750Z,26.90
2019-06-26T18:59:51.687Z,26.90
2019-06-26T19:04:54.268Z,26.30
2019-06-26T19:07:25.305Z,26.40
2019-06-26T19:12:26.024Z,25.30
2019-06-26T19:14:56.802Z,24.60
2019-06-26T19:27:27.990Z,23.40
2019-06-26T19:29:58.924Z,23.20
2019-06-26T19:32:29.476Z,22.90
2019-06-26T19:35:08.243Z,22.90
2019-06-26T19:42:33.333Z,22.30
2019-06-26T19:45:04.338Z,22.00
2019-06-26T19:57:35.282Z,21.30
2019-06-26T20:00:07.626Z,21.40
2019-06-26T20:02:38.746Z,21.40
2019-06-26T20:05:09.858Z,20.40
2019-06-26T20:07:40.786Z,21.10
2019-06-26T20:12:42.041Z,21.30
2019-06-26T20:15:13.618Z,20.50
2019-06-26T20:17:51.331Z,20.60
2019-06-26T20:20:19.172Z,20.50
2019-06-26T20:22:50.464Z,20.20
2019-06-26T20:25:21.366Z,20.30
2019-06-26T20:27:56.854Z,20.50
2019-06-26T20:38:01.589Z,19.90
2019-06-26T20:40:32.971Z,19.60
2019-06-26T20:45:35.485Z,19.10
2019-06-26T20:48:06.474Z,19.20
2019-06-26T20:53:08.205Z,19.00
2019-06-26T20:58:10.629Z,18.70
2019-06-26T21:00:41.722Z,18.90
2019-06-26T21:03:12.759Z,18.60
2019-06-26T21:05:43.713Z,18.30
2019-06-26T21:13:14.411Z,18.10
2019-06-26T21:15:45.244Z,18.00
2019-06-26T21:20:45.922Z,17.90
2019-06-26T21:23:18.958Z,17.70
2019-06-26T21:28:18.629Z,17.50
2019-06-26T21:30:49.338Z,17.30
2019-06-26T21:33:20.135Z,17.40
2019-06-26T21:35:51.319Z,17.40
2019-06-26T21:38:26.836Z,17.20
2019-06-26T21:41:03.176Z,17.30
2019-06-26T21:43:42.927Z,17.40
2019-06-26T21:46:21.064Z,17.10
2019-06-26T21:48:59.851Z,16.80
2019-06-26T21:51:35.836Z,16.70
2019-06-26T21:56:57.821Z,15.80
2019-06-26T22:02:37.515Z,16.40
2019-06-26T22:05:11.216Z,15.90
2019-06-26T22:10:31.195Z,16.00
2019-06-26T22:13:01.765Z,16.10
2019-06-26T22:15:32.344Z,16.00
2019-06-26T22:18:02.981Z,16.00
2019-06-26T22:20:33.744Z,15.90
2019-06-26T22:28:05.899Z,15.70
2019-06-26T22:30:36.466Z,15.80
2019-06-26T22:33:07.113Z,15.90
2019-06-26T22:35:37.640Z,15.70
2019-06-26T22:38:08.536Z,15.90
2019-06-26T22:40:39.304Z,15.80
2019-06-26T22:45:39.870Z,16.00
2019-06-26T22:48:10.507Z,15.90
2019-06-26T22:50:41.157Z,15.90
2019-06-26T22:53:11.681Z,16.10
2019-06-26T22:55:42.546Z,16.10
2019-06-26T23:00:43.127Z,16.10
2019-06-26T23:03:14.200Z,16.00
2019-06-26T23:05:45.065Z,16.30
2019-06-26T23:13:15.266Z,16.00
2019-06-26T23:15:46.043Z,16.10
2019-06-26T23:18:18.562Z,15.90
2019-06-26T23:20:49.171Z,16.00
2019-06-26T23:23:20.720Z,16.20
2019-06-26T23:25:51.492Z,16.10
2019-06-26T23:28:21.967Z,16.10
2019-06-26T23:30:52.506Z,16.10
2019-06-26T23:33:22.912Z,15.60
2019-06-26T23:38:23.796Z,15.90
2019-06-26T23:40:54.367Z,15.90
2019-06-26T23:43:25.035Z,16.10
2019-06-26T23:48:25.563Z,15.80
2019-06-26T23:50:56.232Z,15.90
2019-06-26T23:53:26.921Z,15.80
2019-06-26T23:55:57.465Z,15.90
2019-06-26T23:58:28.277Z,15.80
